Time;durP1;ratioP1;P1;durP2;ratioP2;P2;SDS_P1;SDS_P2;PMS_P1;PMS_P2;Temp;Humidity;BMP_temperature;BMP_pressure;BME280_temperature;BME280_humidity;BME280_pressure;Samples;Min_cycle;Max_cycle;Signal;HPM_P1;HPM_P2
2021/09/23 00:00:31;;;;;;;;;;;;;;;9.40;73.88;99757.34;5026750;28;19921;-80
2021/09/23 00:05:25;;;;;;;;;;;;;;;9.42;74.14;99755.63;5055440;28;19987;-79
2021/09/23 00:07:52;;;;;;;;;;;;;;;9.43;74.20;99747.84;5059320;28;19921;-80
2021/09/23 00:10:19;;;;;;;;;;;;;;;9.44;73.79;99746.97;5034947;28;19960;-80
2021/09/23 00:12:45;;;;;;;;;;;;;;;9.47;73.95;99746.06;5035207;28;19998;-79
2021/09/23 00:15:11;;;;;;;;;;;;;;;9.50;73.81;99746.06;5038683;28;19927;-80
2021/09/23 00:17:37;;;;;;;;;;;;;;;9.52;74.17;99748.63;5035219;28;19925;-80
2021/09/23 00:20:04;;;;;;;;;;;;;;;9.51;73.75;99758.19;5036328;28;20526;-82
2021/09/23 00:22:29;;;;;;;;;;;;;;;9.47;73.55;99751.28;5036448;28;20379;-79
2021/09/23 00:24:55;;;;;;;;;;;;;;;9.39;73.88;99747.84;5036223;28;19968;-78
2021/09/23 00:27:20;;;;;;;;;;;;;;;9.41;74.12;99748.69;5040422;28;20007;-79
2021/09/23 00:29:46;;;;;;;;;;;;;;;9.41;73.96;99743.50;5021637;28;19925;-78
2021/09/23 00:32:12;;;;;;;;;;;;;;;9.44;74.45;99752.16;5019336;28;20008;-80
2021/09/23 00:34:37;;;;;;;;;;;;;;;9.43;74.23;99752.16;5021808;28;19975;-77
2021/09/23 00:37:03;;;;;;;;;;;;;;;9.38;73.85;99756.53;5049051;28;19936;-79
2021/09/23 00:39:29;;;;;;;;;;;;;;;9.40;74.03;99758.22;5020290;28;19952;-79
2021/09/23 00:41:56;;;;;;;;;;;;;;;9.27;74.23;99754.81;5057971;28;19925;-79
2021/09/23 00:44:22;;;;;;;;;;;;;;;9.28;74.54;99751.34;5045173;28;19927;-76
2021/09/23 00:46:49;;;;;;;;;;;;;;;9.34;74.60;99742.66;5044380;28;19925;-77
2021/09/23 00:49:17;;;;;;;;;;;;;;;9.38;74.48;99740.94;5020261;28;19932;-81
2021/09/23 00:51:43;;;;;;;;;;;;;;;9.40;74.15;99739.19;5035924;28;20046;-78
2021/09/23 00:54:09;;;;;;;;;;;;;;;9.45;74.24;99738.31;5027103;28;19920;-78
2021/09/23 00:56:35;;;;;;;;;;;;;;;9.49;74.32;99733.94;5039390;28;19928;-77
2021/09/23 00:59:01;;;;;;;;;;;;;;;9.52;74.41;99733.06;5037584;28;19921;-77
2021/09/23 01:01:27;;;;;;;;;;;;;;;9.53;74.35;99730.47;5033965;28;19920;-78
2021/09/23 01:03:54;;;;;;;;;;;;;;;9.52;74.59;99733.06;5020655;28;19927;-79
2021/09/23 01:06:20;;;;;;;;;;;;;;;9.52;74.42;99733.06;5038979;28;19924;-78
2021/09/23 01:08:56;;;;;;;;;;;;;;;9.54;74.77;99737.38;5052303;28;19928;-80
2021/09/23 01:11:24;;;;;;;;;;;;;;;9.58;74.62;99733.91;5052695;28;19932;-80
2021/09/23 01:13:50;;;;;;;;;;;;;;;9.58;74.60;99726.13;5008987;28;20421;-78
2021/09/23 01:16:28;;;;;;;;;;;;;;;9.58;74.60;99722.63;5018689;28;20340;-78
2021/09/23 01:19:07;;;;;;;;;;;;;;;9.59;74.56;99714.84;5033913;28;20084;-78
2021/09/23 01:21:34;;;;;;;;;;;;;;;9.56;74.19;99711.38;5040829;28;19921;-79
2021/09/23 01:24:04;;;;;;;;;;;;;;;9.58;74.35;99709.66;5035907;28;20507;-79
2021/09/23 01:26:30;;;;;;;;;;;;;;;9.57;74.43;99711.41;5052895;28;19925;-78
2021/09/23 01:29:04;;;;;;;;;;;;;;;9.53;74.64;99720.06;5019120;28;20016;-79
2021/09/23 01:31:36;;;;;;;;;;;;;;;9.53;74.68;99719.19;5035877;28;20028;-78
2021/09/23 01:34:02;;;;;;;;;;;;;;;9.48;73.95;99714.03;5033910;28;19921;-79
2021/09/23 01:36:28;;;;;;;;;;;;;;;9.46;74.76;99714.06;5018560;28;20284;-80
2021/09/23 01:38:54;;;;;;;;;;;;;;;9.47;74.61;99713.19;5038035;28;19924;-78
2021/09/23 01:41:20;;;;;;;;;;;;;;;9.49;74.91;99702.78;5037779;28;20028;-79
2021/09/23 01:43:48;;;;;;;;;;;;;;;9.48;74.64;99696.72;5041392;28;19959;-78
2021/09/23 01:46:14;;;;;;;;;;;;;;;9.48;74.74;99699.34;5041712;28;19913;-78
2021/09/23 01:48:51;;;;;;;;;;;;;;;9.44;74.91;99695.03;5038582;28;20230;-79
2021/09/23 01:51:17;;;;;;;;;;;;;;;9.44;74.64;99694.13;5041183;28;19931;-79
2021/09/23 01:53:42;;;;;;;;;;;;;;;9.48;74.53;99685.47;5035072;28;20439;-79
2021/09/23 01:56:08;;;;;;;;;;;;;;;9.46;74.64;99693.28;5052899;28;19925;-79
2021/09/23 01:58:34;;;;;;;;;;;;;;;9.44;74.94;99684.63;5038493;28;19921;-79
2021/09/23 02:01:01;;;;;;;;;;;;;;;9.47;74.84;99684.63;5056285;28;19931;-80
2021/09/23 02:03:27;;;;;;;;;;;;;;;9.46;74.77;99684.59;5036397;28;19925;-80
2021/09/23 02:06:05;;;;;;;;;;;;;;;9.46;75.02;99676.81;5036500;28;20388;-80
2021/09/23 02:08:31;;;;;;;;;;;;;;;9.48;75.28;99670.75;5035839;28;19921;-79
2021/09/23 02:11:00;;;;;;;;;;;;;;;9.52;75.39;99670.72;5017015;28;20439;-79
2021/09/23 02:13:34;;;;;;;;;;;;;;;9.43;74.64;99677.72;5033981;28;19921;-80
2021/09/23 02:16:00;;;;;;;;;;;;;;;9.44;75.07;99674.25;5020815;28;19931;-76
2021/09/23 02:18:25;;;;;;;;;;;;;;;9.45;74.98;99670.78;5002497;28;19921;-78
2021/09/23 02:20:51;;;;;;;;;;;;;;;9.46;75.26;99672.50;5037756;28;19921;-77
2021/09/23 02:23:17;;;;;;;;;;;;;;;9.50;75.47;99668.13;5031836;28;19929;-78
2021/09/23 02:25:43;;;;;;;;;;;;;;;9.54;75.18;99669.84;5034061;28;19924;-78
2021/09/23 02:28:09;;;;;;;;;;;;;;;9.57;75.11;99669.84;5022298;28;19928;-76
2021/09/23 02:30:35;;;;;;;;;;;;;;;9.59;75.24;99668.09;5039389;28;19991;-77
2021/09/23 02:33:00;;;;;;;;;;;;;;;9.60;75.03;99672.38;5040132;28;20504;-77
2021/09/23 02:35:27;;;;;;;;;;;;;;;9.64;74.87;99670.66;5041369;28;19928;-79
2021/09/23 02:37:53;;;;;;;;;;;;;;;9.64;75.47;99668.91;5039467;28;20008;-75
2021/09/23 02:40:19;;;;;;;;;;;;;;;9.65;75.36;99667.19;5037305;28;19921;-77
2021/09/23 02:42:44;;;;;;;;;;;;;;;9.70;75.46;99675.81;5035134;28;20842;-78
2021/09/23 02:45:11;;;;;;;;;;;;;;;9.71;74.96;99671.47;5020317;28;19931;-77
2021/09/23 02:47:37;;;;;;;;;;;;;;;9.65;75.05;99669.78;5041528;28;19962;-77
2021/09/23 02:50:03;;;;;;;;;;;;;;;9.69;75.11;99668.88;5029979;28;19920;-79
2021/09/23 02:52:29;;;;;;;;;;;;;;;9.69;75.29;99675.81;5021074;28;19932;-76
2021/09/23 02:54:54;;;;;;;;;;;;;;;9.68;75.17;99676.66;5039055;28;20176;-78
2021/09/23 02:57:20;;;;;;;;;;;;;;;9.73;75.44;99680.94;5023789;28;19925;-77
2021/09/23 02:59:45;;;;;;;;;;;;;;;9.76;75.49;99675.75;5055342;28;19928;-77
2021/09/23 03:02:11;;;;;;;;;;;;;;;9.77;75.32;99682.66;5039341;28;19921;-77
2021/09/23 03:04:37;;;;;;;;;;;;;;;9.82;75.17;99676.56;5023339;28;19975;-77
2021/09/23 03:07:02;;;;;;;;;;;;;;;9.87;75.43;99682.59;5052193;28;20579;-77
2021/09/23 03:09:28;;;;;;;;;;;;;;;9.88;75.34;99679.97;5020433;28;19979;-76
2021/09/23 03:11:54;;;;;;;;;;;;;;;9.86;74.83;99679.13;5036792;28;19920;-77
2021/09/23 03:14:19;;;;;;;;;;;;;;;9.76;75.23;99674.88;5022252;28;19921;-76
2021/09/23 03:16:45;;;;;;;;;;;;;;;9.68;75.21;99687.06;5044847;28;19928;-79
2021/09/23 03:19:10;;;;;;;;;;;;;;;9.54;75.29;99687.16;5037824;28;19974;-77
2021/09/23 03:21:37;;;;;;;;;;;;;;;9.54;75.82;99685.44;5038494;28;20336;-76
2021/09/23 03:24:04;;;;;;;;;;;;;;;9.47;75.50;99676.81;5053139;28;19921;-76
2021/09/23 03:26:29;;;;;;;;;;;;;;;9.38;75.99;99671.66;5042910;28;19982;-77
2021/09/23 03:28:56;;;;;;;;;;;;;;;9.43;76.13;99669.03;5022613;28;19967;-77
2021/09/23 03:31:21;;;;;;;;;;;;;;;9.52;76.28;99661.19;5044075;28;20376;-78
2021/09/23 03:33:47;;;;;;;;;;;;;;;9.58;76.51;99668.97;5040071;28;19925;-77
2021/09/23 03:36:13;;;;;;;;;;;;;;;9.64;76.42;99660.25;5021970;28;20050;-76
2021/09/23 03:38:38;;;;;;;;;;;;;;;9.65;76.21;99662.81;5036942;28;19928;-77
2021/09/23 03:41:04;;;;;;;;;;;;;;;9.70;76.65;99646.34;5021079;28;20415;-78
2021/09/23 03:43:29;;;;;;;;;;;;;;;9.76;76.55;99646.31;5023042;28;19920;-76
2021/09/23 03:45:56;;;;;;;;;;;;;;;9.78;76.55;99647.16;5043112;28;19921;-78
2021/09/23 03:48:23;;;;;;;;;;;;;;;9.74;76.58;99645.47;5055448;28;19935;-80
2021/09/23 03:50:48;;;;;;;;;;;;;;;9.76;76.87;99646.31;5053082;28;20383;-77
2021/09/23 03:53:15;;;;;;;;;;;;;;;9.79;76.60;99648.88;5040844;28;19971;-76
2021/09/23 03:55:40;;;;;;;;;;;;;;;9.78;75.97;99649.75;5028674;28;19960;-77
2021/09/23 03:58:09;;;;;;;;;;;;;;;9.80;76.59;99645.41;5037552;28;20003;-78
2021/09/23 04:00:37;;;;;;;;;;;;;;;9.86;77.09;99644.50;5010006;28;19924;-78
2021/09/23 04:03:03;;;;;;;;;;;;;;;9.92;76.90;99644.44;5038798;28;20376;-77
2021/09/23 04:05:29;;;;;;;;;;;;;;;9.94;76.92;99643.56;5036513;28;19929;-76
2021/09/23 04:07:54;;;;;;;;;;;;;;;9.98;77.03;99644.38;5038621;28;19921;-78
2021/09/23 04:10:22;;;;;;;;;;;;;;;10.04;76.77;99641.72;5041785;28;20411;-77
2021/09/23 04:12:49;;;;;;;;;;;;;;;10.09;76.77;99637.34;5036880;28;19921;-77
2021/09/23 04:15:15;;;;;;;;;;;;;;;10.15;76.76;99640.78;5009897;28;19920;-78
2021/09/23 04:17:41;;;;;;;;;;;;;;;10.21;77.05;99638.09;5038889;28;20419;-77
2021/09/23 04:20:07;;;;;;;;;;;;;;;10.27;76.51;99635.44;5020788;28;19966;-78
2021/09/23 04:22:32;;;;;;;;;;;;;;;10.36;76.67;99637.09;5035398;28;20618;-77
2021/09/23 04:24:59;;;;;;;;;;;;;;;10.42;76.77;99634.47;5036905;28;20392;-76
2021/09/23 04:27:25;;;;;;;;;;;;;;;10.48;76.44;99634.38;5021624;28;19932;-76
2021/09/23 04:29:50;;;;;;;;;;;;;;;10.52;76.65;99635.22;5037258;28;19966;-77
2021/09/23 04:32:16;;;;;;;;;;;;;;;10.55;76.33;99638.63;5016516;28;19921;-76
2021/09/23 04:34:42;;;;;;;;;;;;;;;10.59;76.36;99636.00;5037033;28;20265;-77
2021/09/23 04:37:11;;;;;;;;;;;;;;;10.60;76.30;99642.94;5020729;28;20046;-77
2021/09/23 04:39:37;;;;;;;;;;;;;;;10.56;76.40;99639.50;5038642;28;20402;-78
2021/09/23 04:42:02;;;;;;;;;;;;;;;10.53;76.06;99626.53;5039830;28;19971;-76
2021/09/23 04:44:28;;;;;;;;;;;;;;;10.47;76.23;99617.06;5003912;28;19942;-76
2021/09/23 04:46:54;;;;;;;;;;;;;;;10.52;76.77;99614.41;5023514;28;19925;-76
2021/09/23 04:49:20;;;;;;;;;;;;;;;10.65;76.88;99625.53;5039522;28;20056;-78
2021/09/23 04:51:47;;;;;;;;;;;;;;;10.72;76.04;99619.34;5033944;28;20015;-77
2021/09/23 04:54:14;;;;;;;;;;;;;;;10.71;76.59;99630.63;5052059;28;19921;-77
2021/09/23 04:56:40;;;;;;;;;;;;;;;10.80;76.70;99627.94;5037207;28;19964;-77
2021/09/23 04:59:05;;;;;;;;;;;;;;;10.78;75.58;99634.06;5022969;28;20327;-77
2021/09/23 05:01:31;;;;;;;;;;;;;;;10.79;76.31;99636.63;5017563;28;19920;-78
2021/09/23 05:03:58;;;;;;;;;;;;;;;10.63;75.80;99619.47;5036762;28;20020;-77
2021/09/23 05:06:24;;;;;;;;;;;;;;;10.55;75.66;99628.22;5019635;28;20048;-76
2021/09/23 05:08:56;;;;;;;;;;;;;;;10.67;76.52;99635.03;5003848;28;19927;-76
2021/09/23 05:11:24;;;;;;;;;;;;;;;10.75;76.10;99626.28;5036105;28;19920;-75
2021/09/23 05:13:49;;;;;;;;;;;;;;;10.78;75.85;99634.06;5016069;28;20439;-74
2021/09/23 05:16:15;;;;;;;;;;;;;;;10.75;76.50;99621.91;5032973;28;19920;-75
2021/09/23 05:18:41;;;;;;;;;;;;;;;10.73;75.46;99618.47;5024508;28;19970;-76
2021/09/23 05:21:07;;;;;;;;;;;;;;;10.70;76.27;99623.75;5035514;28;20398;-77
2021/09/23 05:23:32;;;;;;;;;;;;;;;10.85;76.60;99623.53;5036983;28;19921;-75
2021/09/23 05:25:58;;;;;;;;;;;;;;;10.83;76.27;99621.81;5036281;28;19979;-75
2021/09/23 05:28:23;;;;;;;;;;;;;;;10.93;76.58;99625.16;5017694;28;20302;-76
2021/09/23 05:30:49;;;;;;;;;;;;;;;10.85;76.26;99628.75;5033555;28;19921;-76
2021/09/23 05:33:15;;;;;;;;;;;;;;;10.93;76.57;99628.63;5037524;28;19931;-75
2021/09/23 05:35:41;;;;;;;;;;;;;;;10.94;76.17;99624.28;5037977;28;19927;-75
2021/09/23 05:38:08;;;;;;;;;;;;;;;11.03;76.75;99626.78;5035020;28;19953;-75
2021/09/23 05:40:34;;;;;;;;;;;;;;;11.01;75.77;99628.53;5035996;28;19971;-75
2021/09/23 05:42:59;;;;;;;;;;;;;;;10.87;76.28;99626.09;5035018;28;19921;-75
2021/09/23 05:45:25;;;;;;;;;;;;;;;10.75;76.06;99636.69;5032721;28;20126;-75
2021/09/23 05:47:51;;;;;;;;;;;;;;;10.60;75.89;99635.97;5054358;28;20075;-75
2021/09/23 05:50:17;;;;;;;;;;;;;;;10.62;76.68;99635.97;5042865;28;20446;-75
2021/09/23 05:52:42;;;;;;;;;;;;;;;10.74;76.87;99641.00;5056880;28;19928;-76
2021/09/23 05:55:08;;;;;;;;;;;;;;;10.79;76.49;99631.41;5053587;28;19920;-76
2021/09/23 05:57:34;;;;;;;;;;;;;;;10.72;76.18;99624.56;5053740;28;19925;-76
2021/09/23 06:00:12;;;;;;;;;;;;;;;10.75;76.95;99631.47;5039671;28;19928;-78
2021/09/23 06:02:42;;;;;;;;;;;;;;;10.69;76.50;99622.88;5034452;28;20015;-76
2021/09/23 06:05:08;;;;;;;;;;;;;;;10.75;77.18;99624.53;5003903;28;20500;-76
2021/09/23 06:07:34;;;;;;;;;;;;;;;10.80;76.30;99630.53;5035980;28;19928;-77
2021/09/23 06:09:59;;;;;;;;;;;;;;;10.70;76.55;99623.75;5036480;28;19948;-77
2021/09/23 06:12:25;;;;;;;;;;;;;;;10.59;76.31;99625.59;5035302;28;19932;-76
2021/09/23 06:14:51;;;;;;;;;;;;;;;10.51;76.66;99626.53;5052674;28;20307;-77
2021/09/23 06:17:17;;;;;;;;;;;;;;;10.49;76.71;99628.28;5032362;28;20491;-76
2021/09/23 06:19:42;;;;;;;;;;;;;;;10.49;76.79;99636.09;5037818;28;20391;-76
2021/09/23 06:22:08;;;;;;;;;;;;;;;10.49;76.32;99630.03;5036131;28;19921;-75
2021/09/23 06:24:33;;;;;;;;;;;;;;;10.49;76.86;99640.44;5024267;28;20611;-76
2021/09/23 06:26:59;;;;;;;;;;;;;;;10.43;76.72;99636.19;5036570;28;19925;-77
2021/09/23 06:29:25;;;;;;;;;;;;;;;10.39;76.89;99637.09;5036626;28;19932;-76
2021/09/23 06:31:53;;;;;;;;;;;;;;;10.32;76.99;99641.47;5041618;28;19921;-76
2021/09/23 06:34:21;;;;;;;;;;;;;;;10.30;77.28;99643.22;5022248;28;20357;-76
2021/09/23 06:36:46;;;;;;;;;;;;;;;10.30;77.73;99624.13;5032500;28;19928;-76
2021/09/23 06:39:12;;;;;;;;;;;;;;;10.46;77.94;99624.88;5036118;28;19921;-75
2021/09/23 06:41:37;;;;;;;;;;;;;;;10.60;77.79;99622.97;5038745;28;19932;-74
2021/09/23 06:44:06;;;;;;;;;;;;;;;10.64;77.50;99618.59;5040013;28;20446;-79
2021/09/23 06:46:32;;;;;;;;;;;;;;;10.75;77.88;99608.06;5035614;28;20644;-77
2021/09/23 06:49:01;;;;;;;;;;;;;;;10.89;77.95;99615.69;5018614;28;19921;-77
2021/09/23 06:51:27;;;;;;;;;;;;;;;10.97;77.58;99619.03;5034998;28;19948;-76
2021/09/23 06:53:54;;;;;;;;;;;;;;;11.01;77.46;99620.72;5035591;28;19928;-75
2021/09/23 06:56:20;;;;;;;;;;;;;;;10.99;77.16;99618.16;5019912;28;19921;-78
2021/09/23 06:58:46;;;;;;;;;;;;;;;10.98;77.55;99615.56;5034383;28;19931;-74
2021/09/23 07:01:30;;;;;;;;;;;;;;;10.95;76.40;99603.44;5038233;28;19927;-76
2021/09/23 07:04:17;;;;;;;;;;;;;;;10.93;76.86;99625.16;5037858;28;19921;-76
2021/09/23 07:06:58;;;;;;;;;;;;;;;11.05;77.13;99617.19;5035316;28;19936;-78
2021/09/23 07:09:32;;;;;;;;;;;;;;;11.15;77.12;99610.13;5035004;28;19924;-78
2021/09/23 07:12:01;;;;;;;;;;;;;;;11.21;77.11;99620.47;5001648;28;20373;-76
2021/09/23 07:14:30;;;;;;;;;;;;;;;11.28;76.95;99608.19;5037093;28;19932;-78
2021/09/23 07:17:09;;;;;;;;;;;;;;;11.37;77.40;99615.00;5022061;28;19921;-77
2021/09/23 07:19:35;;;;;;;;;;;;;;;11.50;77.32;99607.88;5040128;28;20027;-78
2021/09/23 07:22:03;;;;;;;;;;;;;;;11.44;76.07;99612.28;5039093;28;20384;-76
2021/09/23 07:24:29;;;;;;;;;;;;;;;11.30;76.41;99611.66;5039042;28;19925;-77
2021/09/23 07:26:55;;;;;;;;;;;;;;;11.28;77.03;99616.00;5037751;28;19925;-76
2021/09/23 07:29:27;;;;;;;;;;;;;;;11.36;77.15;99608.09;5026829;28;20056;-76
2021/09/23 07:31:58;;;;;;;;;;;;;;;11.41;76.50;99606.28;5038563;28;19944;-78
2021/09/23 07:34:27;;;;;;;;;;;;;;;11.32;76.25;99601.19;5006215;28;19920;-78
2021/09/23 07:36:59;;;;;;;;;;;;;;;11.35;76.60;99599.41;5038694;28;20331;-77
2021/09/23 07:39:31;;;;;;;;;;;;;;;11.33;76.53;99600.31;5041407;28;19961;-76
2021/09/23 07:41:57;;;;;;;;;;;;;;;11.40;76.93;99600.19;5036782;28;20332;-77
2021/09/23 07:44:26;;;;;;;;;;;;;;;11.51;76.95;99597.41;5039157;28;19920;-77
2021/09/23 07:46:54;;;;;;;;;;;;;;;11.44;76.38;99593.19;5007468;28;20516;-75
2021/09/23 07:49:29;;;;;;;;;;;;;;;11.38;76.81;99599.34;5009398;28;19921;-77
2021/09/23 07:51:54;;;;;;;;;;;;;;;11.46;76.99;99596.66;5038950;28;19921;-77
2021/09/23 07:54:21;;;;;;;;;;;;;;;11.63;77.02;99592.91;5038138;28;19927;-77
2021/09/23 07:56:53;;;;;;;;;;;;;;;11.83;76.88;99592.53;5042789;28;20293;-77
2021/09/23 07:59:34;;;;;;;;;;;;;;;12.04;76.92;99589.59;5039242;28;19949;-75
2021/09/23 08:02:00;;;;;;;;;;;;;;;12.28;76.92;99587.41;5061546;28;20007;-75
2021/09/23 08:04:29;;;;;;;;;;;;;;;12.45;76.57;99591.47;5039864;28;19935;-76
2021/09/23 08:06:58;;;;;;;;;;;;;;;12.57;76.13;99585.13;5020847;28;19931;-75
2021/09/23 08:09:26;;;;;;;;;;;;;;;12.54;75.84;99583.44;5053808;28;20393;-76
2021/09/23 08:11:51;;;;;;;;;;;;;;;12.48;75.10;99580.94;5020050;28;19920;-77
2021/09/23 08:14:22;;;;;;;;;;;;;;;12.33;74.83;99580.38;5020443;28;20527;-78
2021/09/23 08:17:06;;;;;;;;;;;;;;;12.19;75.81;99575.41;5036260;28;20024;-77
2021/09/23 08:20:09;;;;;;;;;;;;;;;12.30;75.89;99563.91;5027501;28;19931;-77
2021/09/23 08:22:55;;;;;;;;;;;;;;;12.52;76.05;99566.09;5038511;28;19927;-77
2021/09/23 08:25:39;;;;;;;;;;;;;;;12.69;75.92;99563.16;5041351;28;19925;-75
2021/09/23 08:28:07;;;;;;;;;;;;;;;12.81;75.63;99557.63;5025678;28;19948;-77
2021/09/23 08:30:34;;;;;;;;;;;;;;;12.74;75.42;99553.44;5021968;28;19921;-75
2021/09/23 08:33:03;;;;;;;;;;;;;;;12.75;75.57;99560.38;5020380;28;19924;-77
2021/09/23 08:35:29;;;;;;;;;;;;;;;12.81;75.40;99557.63;5037373;28;20024;-79
2021/09/23 08:38:11;;;;;;;;;;;;;;;12.83;75.23;99560.19;5038726;28;20141;-78
2021/09/23 08:40:38;;;;;;;;;;;;;;;12.85;75.04;99561.03;5019352;28;19922;-75
2021/09/23 08:43:06;;;;;;;;;;;;;;;12.83;74.93;99557.59;5006099;28;19994;-76
2021/09/23 08:45:37;;;;;;;;;;;;;;;12.80;74.64;99559.38;5021751;28;19925;-78
2021/09/23 08:48:26;;;;;;;;;;;;;;;12.73;74.60;99560.41;5007132;28;20442;-77
2021/09/23 08:50:52;;;;;;;;;;;;;;;12.67;74.53;99554.47;5041157;28;19928;-77
2021/09/23 08:53:17;;;;;;;;;;;;;;;12.59;74.77;99552.00;5004314;28;19925;-77
2021/09/23 08:55:44;;;;;;;;;;;;;;;12.59;74.60;99558.09;5038486;28;19990;-76
2021/09/23 08:58:12;;;;;;;;;;;;;;;12.64;74.86;99556.25;5026634;28;19960;-77
2021/09/23 09:00:58;;;;;;;;;;;;;;;12.72;74.66;99563.03;5056179;28;20945;-78
2021/09/23 09:03:27;;;;;;;;;;;;;;;12.67;74.54;99551.88;5037390;28;19967;-78
2021/09/23 09:06:05;;;;;;;;;;;;;;;12.73;74.57;99552.59;5033336;28;19924;-77
2021/09/23 09:08:36;;;;;;;;;;;;;;;12.79;74.52;99544.63;5035743;28;19964;-77
2021/09/23 09:11:11;;;;;;;;;;;;;;;12.92;74.62;99553.03;5020711;28;19925;-77
2021/09/23 09:13:38;;;;;;;;;;;;;;;13.11;74.71;99544.78;5043114;28;20028;-75
2021/09/23 09:16:05;;;;;;;;;;;;;;;13.34;74.33;99543.38;5038232;28;19921;-78
2021/09/23 09:18:30;;;;;;;;;;;;;;;13.62;74.64;99543.59;5006430;28;19921;-76
2021/09/23 09:20:59;;;;;;;;;;;;;;;13.81;74.22;99541.31;5034997;28;19999;-74
2021/09/23 09:23:26;;;;;;;;;;;;;;;13.93;73.83;99544.53;5033944;28;20015;-78
2021/09/23 09:25:52;;;;;;;;;;;;;;;13.94;73.25;99543.63;5038864;28;19932;-76
2021/09/23 09:28:18;;;;;;;;;;;;;;;13.83;73.25;99543.91;5020623;28;19927;-76
2021/09/23 09:30:44;;;;;;;;;;;;;;;13.73;73.31;99543.31;5037599;28;19928;-76
2021/09/23 09:33:10;;;;;;;;;;;;;;;13.67;73.41;99536.50;5023955;28;19928;-75
2021/09/23 09:35:43;;;;;;;;;;;;;;;13.65;73.31;99530.44;5037907;28;20328;-78
2021/09/23 09:38:10;;;;;;;;;;;;;;;13.54;72.92;99528.09;5052912;28;19925;-75
2021/09/23 09:40:38;;;;;;;;;;;;;;;13.48;73.13;99532.59;5037029;28;20574;-78
2021/09/23 09:43:05;;;;;;;;;;;;;;;13.47;73.16;99523.91;5006518;28;19970;-77
2021/09/23 09:45:33;;;;;;;;;;;;;;;13.58;73.45;99523.63;5023460;28;19978;-76
2021/09/23 09:48:00;;;;;;;;;;;;;;;13.82;73.58;99516.06;5036885;28;19960;-77
2021/09/23 09:50:28;;;;;;;;;;;;;;;13.98;72.95;99519.13;5036677;28;19929;-77
2021/09/23 09:53:01;;;;;;;;;;;;;;;14.01;72.69;99522.50;5053659;28;19926;-77
2021/09/23 09:55:29;;;;;;;;;;;;;;;13.94;72.04;99517.47;5041358;28;19951;-77
2021/09/23 09:57:54;;;;;;;;;;;;;;;13.84;72.10;99520.34;5037899;28;19921;-76
2021/09/23 10:00:22;;;;;;;;;;;;;;;13.83;72.24;99521.22;5037587;28;20020;-76
2021/09/23 10:02:48;;;;;;;;;;;;;;;13.85;72.22;99516.81;5044639;28;19924;-75
2021/09/23 10:05:22;;;;;;;;;;;;;;;13.91;72.24;99520.19;5047029;28;19929;-75
2021/09/23 10:07:49;;;;;;;;;;;;;;;13.93;71.90;99521.00;5041500;28;19955;-76
2021/09/23 10:10:17;;;;;;;;;;;;;;;13.94;71.81;99523.56;5032773;28;19921;-76
2021/09/23 10:12:46;;;;;;;;;;;;;;;13.85;71.82;99519.44;5044111;28;19932;-76
2021/09/23 10:15:14;;;;;;;;;;;;;;;13.82;71.59;99514.28;5020988;28;19921;-77
2021/09/23 10:17:44;;;;;;;;;;;;;;;13.83;71.83;99507.31;5011881;28;19944;-75
2021/09/23 10:20:10;;;;;;;;;;;;;;;13.96;71.85;99508.69;5052897;28;20418;-77
2021/09/23 10:22:36;;;;;;;;;;;;;;;14.15;71.50;99501.19;5022643;28;19921;-77
2021/09/23 10:25:05;;;;;;;;;;;;;;;14.36;71.70;99501.47;5021711;28;19913;-76
2021/09/23 10:30:22;;;;;;;;;;;;;;;14.66;71.00;99503.22;5038192;28;19929;-76
2021/09/23 10:32:50;;;;;;;;;;;;;;;14.78;70.74;99496.78;5016776;28;19925;-78
2021/09/23 10:35:22;;;;;;;;;;;;;;;14.95;70.26;99504.94;5024359;28;20015;-78
2021/09/23 10:37:53;;;;;;;;;;;;;;;15.10;70.24;99493.13;5009701;28;20395;-77
2021/09/23 10:40:19;;;;;;;;;;;;;;;15.15;69.91;99492.97;5019808;28;20411;-76
2021/09/23 10:42:45;;;;;;;;;;;;;;;15.19;69.47;99491.97;5043702;28;19921;-76
2021/09/23 10:45:15;;;;;;;;;;;;;;;15.11;69.19;99494.00;5049359;28;19931;-77
2021/09/23 10:47:43;;;;;;;;;;;;;;;15.06;69.38;99491.50;5047888;28;19921;-76
2021/09/23 10:50:09;;;;;;;;;;;;;;;15.08;69.25;99492.31;5058459;28;19928;-76
2021/09/23 10:52:35;;;;;;;;;;;;;;;15.12;69.08;99501.81;5040932;28;19925;-77
2021/09/23 10:55:06;;;;;;;;;;;;;;;15.19;69.23;99492.84;5040132;28;19928;-76
2021/09/23 10:57:32;;;;;;;;;;;;;;;15.36;69.26;99488.78;4999257;28;19948;-75
2021/09/23 11:00:03;;;;;;;;;;;;;;;15.45;68.58;99491.09;5039803;28;19921;-76
2021/09/23 11:02:31;;;;;;;;;;;;;;;15.34;68.55;99486.22;5053460;28;19931;-77
2021/09/23 11:04:58;;;;;;;;;;;;;;;15.27;68.32;99489.97;5041701;28;19932;-76
2021/09/23 11:07:31;;;;;;;;;;;;;;;15.30;68.58;99482.00;5044629;28;19929;-77
2021/09/23 11:10:13;;;;;;;;;;;;;;;15.26;68.07;99487.38;5023115;28;19924;-77
2021/09/23 11:12:42;;;;;;;;;;;;;;;15.09;68.16;99485.34;5033952;28;19920;-78
2021/09/23 11:15:13;;;;;;;;;;;;;;;15.13;68.10;99486.91;5036224;28;20023;-76
2021/09/23 11:17:40;;;;;;;;;;;;;;;15.22;68.30;99481.38;5043787;28;19990;-77
2021/09/23 11:20:16;;;;;;;;;;;;;;;15.25;67.84;99489.16;5039593;28;19932;-76
2021/09/23 11:22:48;;;;;;;;;;;;;;;15.25;68.04;99483.03;5041011;28;19921;-77
2021/09/23 11:25:15;;;;;;;;;;;;;;;15.15;67.76;99480.75;5041440;28;19976;-77
2021/09/23 11:27:46;;;;;;;;;;;;;;;15.08;67.96;99476.59;5038143;28;19925;-76
2021/09/23 11:30:20;;;;;;;;;;;;;;;15.08;67.45;99476.59;5053220;28;19921;-78
2021/09/23 11:32:47;;;;;;;;;;;;;;;15.12;67.77;99469.47;5024215;28;20308;-77
2021/09/23 11:35:20;;;;;;;;;;;;;;;15.17;67.54;99470.19;5041126;28;19928;-77
2021/09/23 11:37:50;;;;;;;;;;;;;;;15.17;67.24;99467.56;5042982;28;19927;-75
2021/09/23 11:40:24;;;;;;;;;;;;;;;15.15;67.27;99472.00;5055558;28;20019;-75
2021/09/23 11:42:53;;;;;;;;;;;;;;;15.06;67.32;99462.69;5040235;28;20016;-76
2021/09/23 11:45:20;;;;;;;;;;;;;;;15.02;67.26;99461.94;5053400;28;19925;-78
2021/09/23 11:47:54;;;;;;;;;;;;;;;14.94;67.33;99463.09;5025195;28;20293;-77
2021/09/23 11:50:22;;;;;;;;;;;;;;;14.83;67.39;99456.44;5053503;28;19925;-77
2021/09/23 11:52:51;;;;;;;;;;;;;;;14.85;67.31;99456.41;5036828;28;19928;-77
2021/09/23 11:55:17;;;;;;;;;;;;;;;14.84;67.12;99462.53;5040853;28;19921;-77
2021/09/23 11:57:45;;;;;;;;;;;;;;;14.82;67.06;99459.09;5020664;28;19996;-77
2021/09/23 12:00:11;;;;;;;;;;;;;;;14.88;67.45;99453.69;5018768;28;20007;-77
2021/09/23 12:02:53;;;;;;;;;;;;;;;15.00;67.38;99462.91;5019810;28;19921;-76
2021/09/23 12:05:24;;;;;;;;;;;;;;;15.12;67.07;99454.63;5004793;28;19983;-76
2021/09/23 12:07:52;;;;;;;;;;;;;;;15.23;67.00;99456.06;5023100;28;19925;-76
2021/09/23 12:10:19;;;;;;;;;;;;;;;15.25;66.86;99455.09;5062666;28;19921;-76
2021/09/23 12:12:57;;;;;;;;;;;;;;;15.26;66.25;99451.56;5058959;28;19939;-77
2021/09/23 12:15:24;;;;;;;;;;;;;;;15.20;66.48;99449.13;5021567;28;20342;-77
2021/09/23 12:17:54;;;;;;;;;;;;;;;15.24;66.44;99449.88;5040614;28;19920;-75
2021/09/23 12:20:21;;;;;;;;;;;;;;;15.26;66.23;99441.06;5038694;28;20016;-76
2021/09/23 12:22:47;;;;;;;;;;;;;;;15.38;66.38;99445.03;5054279;28;21100;-77
2021/09/23 12:25:13;;;;;;;;;;;;;;;15.49;66.07;99440.25;5038371;28;19937;-77
2021/09/23 12:27:39;;;;;;;;;;;;;;;15.48;65.73;99437.72;5039026;28;20405;-77
2021/09/23 12:30:05;;;;;;;;;;;;;;;15.43;65.78;99443.13;5035206;28;19928;-77
2021/09/23 12:32:43;;;;;;;;;;;;;;;15.42;65.50;99437.91;5038126;28;19974;-78
2021/09/23 12:35:16;;;;;;;;;;;;;;;15.43;65.72;99442.25;5020764;28;19956;-77
2021/09/23 12:37:42;;;;;;;;;;;;;;;15.46;65.37;99437.75;5041302;28;20454;-78
2021/09/23 12:40:29;;;;;;;;;;;;;;;15.43;65.45;99437.00;5041856;28;19913;-77
2021/09/23 12:42:56;;;;;;;;;;;;;;;15.30;64.97;99437.44;5041272;28;19921;-78
2021/09/23 12:45:25;;;;;;;;;;;;;;;15.29;65.43;99434.84;5034615;28;19924;-77
2021/09/23 12:47:52;;;;;;;;;;;;;;;15.37;65.51;99427.59;5034747;28;20023;-77
2021/09/23 12:50:27;;;;;;;;;;;;;;;15.41;65.23;99430.97;5035146;28;19929;-77
2021/09/23 12:52:53;;;;;;;;;;;;;;;15.40;65.07;99427.50;5035883;28;19927;-76
2021/09/23 12:55:26;;;;;;;;;;;;;;;15.36;65.14;99425.88;5037068;28;19966;-76
2021/09/23 12:58:02;;;;;;;;;;;;;;;15.29;64.75;99419.13;5004551;28;20311;-76
2021/09/23 13:00:39;;;;;;;;;;;;;;;15.29;65.12;99417.38;5009310;28;20335;-76